sensor_id;sensor_type;location;lat;lon;timestamp;temperature;humidity
5980;DHT22;3016;50.308;8.258;2023-02-28T00:01:00;-0.20;1.00
5980;DHT22;3016;50.308;8.258;2023-02-28T00:04:01;-0.20;1.00
5980;DHT22;3016;50.308;8.258;2023-02-28T00:07:02;-0.10;1.00
5980;DHT22;3016;50.308;8.258;2023-02-28T00:10:08;0.00;1.00
5980;DHT22;3016;50.308;8.258;2023-02-28T00:13:10;0.10;1.00
5980;DHT22;3016;50.308;8.258;2023-02-28T00:16:14;0.10;1.00
5980;DHT22;3016;50.308;8.258;2023-02-28T00:19:16;0.10;1.00
5980;DHT22;3016;50.308;8.258;2023-02-28T00:22:19;0.10;1.00
5980;DHT22;3016;50.308;8.258;2023-02-28T00:25:23;0.00;1.00
5980;DHT22;3016;50.308;8.258;2023-02-28T00:28:24;0.00;1.00
5980;DHT22;3016;50.308;8.258;2023-02-28T00:31:25;0.00;1.00
5980;DHT22;3016;50.308;8.258;2023-02-28T00:34:26;-0.10;1.00
5980;DHT22;3016;50.308;8.258;2023-02-28T00:37:27;-0.10;1.00
5980;DHT22;3016;50.308;8.258;2023-02-28T00:40:29;-0.20;1.00
5980;DHT22;3016;50.308;8.258;2023-02-28T00:43:31;-0.20;1.00
5980;DHT22;3016;50.308;8.258;2023-02-28T00:46:32;-0.30;1.00
5980;DHT22;3016;50.308;8.258;2023-02-28T00:49:33;-0.30;1.00
5980;DHT22;3016;50.308;8.258;2023-02-28T00:52:34;-0.30;1.00
5980;DHT22;3016;50.308;8.258;2023-02-28T00:55:34;-0.40;1.00
5980;DHT22;3016;50.308;8.258;2023-02-28T00:58:35;-0.40;1.00
5980;DHT22;3016;50.308;8.258;2023-02-28T01:01:36;-0.50;1.00
5980;DHT22;3016;50.308;8.258;2023-02-28T01:04:36;-0.50;1.00
5980;DHT22;3016;50.308;8.258;2023-02-28T01:07:37;-0.60;1.00
5980;DHT22;3016;50.308;8.258;2023-02-28T01:10:38;-0.60;1.00
5980;DHT22;3016;50.308;8.258;2023-02-28T01:13:39;-0.60;1.00
5980;DHT22;3016;50.308;8.258;2023-02-28T01:16:41;-0.70;1.00
5980;DHT22;3016;50.308;8.258;2023-02-28T01:19:42;-0.70;1.00
5980;DHT22;3016;50.308;8.258;2023-02-28T01:22:42;-0.80;1.00
5980;DHT22;3016;50.308;8.258;2023-02-28T01:25:44;-0.80;1.00
5980;DHT22;3016;50.308;8.258;2023-02-28T01:28:45;-0.80;1.00
5980;DHT22;3016;50.308;8.258;2023-02-28T01:31:46;-0.90;1.00
5980;DHT22;3016;50.308;8.258;2023-02-28T01:34:46;-1.00;1.00
5980;DHT22;3016;50.308;8.258;2023-02-28T01:37:47;-1.10;1.00
5980;DHT22;3016;50.308;8.258;2023-02-28T01:40:48;-1.10;1.00
5980;DHT22;3016;50.308;8.258;2023-02-28T01:46:49;-1.30;1.00
5980;DHT22;3016;50.308;8.258;2023-02-28T01:49:50;-1.30;1.00
5980;DHT22;3016;50.308;8.258;2023-02-28T01:52:52;-1.40;1.00
5980;DHT22;3016;50.308;8.258;2023-02-28T01:55:56;-1.50;1.00
5980;DHT22;3016;50.308;8.258;2023-02-28T01:58:57;-1.60;1.00
5980;DHT22;3016;50.308;8.258;2023-02-28T02:01:58;-1.70;1.00
5980;DHT22;3016;50.308;8.258;2023-02-28T02:05:04;-1.80;1.00
5980;DHT22;3016;50.308;8.258;2023-02-28T02:08:28;-1.80;1.00
5980;DHT22;3016;50.308;8.258;2023-02-28T02:11:29;-1.90;1.00
5980;DHT22;3016;50.308;8.258;2023-02-28T02:14:48;-2.00;1.00
5980;DHT22;3016;50.308;8.258;2023-02-28T02:18:30;-2.10;1.00
5980;DHT22;3016;50.308;8.258;2023-02-28T02:25:39;-2.10;1.00
5980;DHT22;3016;50.308;8.258;2023-02-28T02:29:05;-2.20;1.00
5980;DHT22;3016;50.308;8.258;2023-02-28T02:32:49;-2.20;1.00
5980;DHT22;3016;50.308;8.258;2023-02-28T02:39:48;-2.20;1.00
5980;DHT22;3016;50.308;8.258;2023-02-28T02:43:25;-2.20;1.00
5980;DHT22;3016;50.308;8.258;2023-02-28T02:46:33;-2.30;1.00
5980;DHT22;3016;50.308;8.258;2023-02-28T02:49:38;-2.40;1.00
5980;DHT22;3016;50.308;8.258;2023-02-28T02:52:45;-2.40;1.00
5980;DHT22;3016;50.308;8.258;2023-02-28T02:55:51;-2.40;1.00
5980;DHT22;3016;50.308;8.258;2023-02-28T02:58:57;-2.50;1.00
5980;DHT22;3016;50.308;8.258;2023-02-28T03:02:04;-2.50;1.00
5980;DHT22;3016;50.308;8.258;2023-02-28T03:05:49;-2.60;1.00
5980;DHT22;3016;50.308;8.258;2023-02-28T03:08:50;-2.70;1.00
5980;DHT22;3016;50.308;8.258;2023-02-28T03:11:52;-2.70;1.00
5980;DHT22;3016;50.308;8.258;2023-02-28T03:15:17;-2.80;1.00
5980;DHT22;3016;50.308;8.258;2023-02-28T03:19:02;-2.90;1.00
5980;DHT22;3016;50.308;8.258;2023-02-28T03:26:21;-3.00;1.00
5980;DHT22;3016;50.308;8.258;2023-02-28T03:32:56;-3.10;1.00
5980;DHT22;3016;50.308;8.258;2023-02-28T03:36:11;-3.10;1.00
5980;DHT22;3016;50.308;8.258;2023-02-28T03:39:36;-3.10;1.00
5980;DHT22;3016;50.308;8.258;2023-02-28T03:42:45;-3.20;1.00
5980;DHT22;3016;50.308;8.258;2023-02-28T03:45:50;-3.20;1.00
5980;DHT22;3016;50.308;8.258;2023-02-28T03:49:06;-3.20;1.00
5980;DHT22;3016;50.308;8.258;2023-02-28T03:52:17;-3.30;1.00
5980;DHT22;3016;50.308;8.258;2023-02-28T03:55:19;-3.30;1.00
5980;DHT22;3016;50.308;8.258;2023-02-28T03:58:32;-3.40;1.00
5980;DHT22;3016;50.308;8.258;2023-02-28T04:01:40;-3.40;1.00
5980;DHT22;3016;50.308;8.258;2023-02-28T04:04:43;-3.40;1.00
5980;DHT22;3016;50.308;8.258;2023-02-28T04:07:45;-3.50;1.00
5980;DHT22;3016;50.308;8.258;2023-02-28T04:10:51;-3.50;1.00
5980;DHT22;3016;50.308;8.258;2023-02-28T04:13:55;-3.50;1.00
5980;DHT22;3016;50.308;8.258;2023-02-28T04:16:56;-3.60;1.00
5980;DHT22;3016;50.308;8.258;2023-02-28T04:19:57;-3.60;1.00
5980;DHT22;3016;50.308;8.258;2023-02-28T04:22:58;-3.60;1.00
5980;DHT22;3016;50.308;8.258;2023-02-28T04:25:58;-3.60;1.00
5980;DHT22;3016;50.308;8.258;2023-02-28T04:29:00;-3.70;1.00
5980;DHT22;3016;50.308;8.258;2023-02-28T04:32:03;-3.70;1.00
5980;DHT22;3016;50.308;8.258;2023-02-28T04:35:04;-3.70;1.00
5980;DHT22;3016;50.308;8.258;2023-02-28T04:38:05;-3.70;1.00
5980;DHT22;3016;50.308;8.258;2023-02-28T04:41:16;-3.70;1.00
5980;DHT22;3016;50.308;8.258;2023-02-28T04:44:17;-3.70;1.00
5980;DHT22;3016;50.308;8.258;2023-02-28T04:47:24;-3.70;1.00
5980;DHT22;3016;50.308;8.258;2023-02-28T04:50:43;-3.70;1.00
5980;DHT22;3016;50.308;8.258;2023-02-28T04:53:43;-3.70;1.00
5980;DHT22;3016;50.308;8.258;2023-02-28T04:56:44;-3.70;1.00
5980;DHT22;3016;50.308;8.258;2023-02-28T04:59:45;-3.70;1.00
5980;DHT22;3016;50.308;8.258;2023-02-28T05:02:46;-3.70;1.00
5980;DHT22;3016;50.308;8.258;2023-02-28T05:05:46;-3.70;1.00
5980;DHT22;3016;50.308;8.258;2023-02-28T05:08:47;-3.80;1.00
5980;DHT22;3016;50.308;8.258;2023-02-28T05:11:48;-3.80;1.00
5980;DHT22;3016;50.308;8.258;2023-02-28T05:14:49;-3.80;1.00
5980;DHT22;3016;50.308;8.258;2023-02-28T05:17:49;-3.90;1.00
5980;DHT22;3016;50.308;8.258;2023-02-28T05:20:50;-3.90;1.00
5980;DHT22;3016;50.308;8.258;2023-02-28T05:23:52;-4.00;1.00
5980;DHT22;3016;50.308;8.258;2023-02-28T05:26:54;-4.00;1.00
5980;DHT22;3016;50.308;8.258;2023-02-28T05:29:56;-4.00;1.00
5980;DHT22;3016;50.308;8.258;2023-02-28T05:32:57;-4.00;1.00
5980;DHT22;3016;50.308;8.258;2023-02-28T05:35:58;-4.00;1.00
5980;DHT22;3016;50.308;8.258;2023-02-28T05:38:59;-3.90;1.00
5980;DHT22;3016;50.308;8.258;2023-02-28T05:42:00;-3.80;1.00
5980;DHT22;3016;50.308;8.258;2023-02-28T05:45:02;-3.70;1.00
5980;DHT22;3016;50.308;8.258;2023-02-28T05:48:04;-3.60;1.00
5980;DHT22;3016;50.308;8.258;2023-02-28T05:51:06;-3.50;1.00
5980;DHT22;3016;50.308;8.258;2023-02-28T05:54:08;-3.40;1.00
5980;DHT22;3016;50.308;8.258;2023-02-28T05:57:09;-3.30;1.00
5980;DHT22;3016;50.308;8.258;2023-02-28T06:00:11;-3.20;1.00
5980;DHT22;3016;50.308;8.258;2023-02-28T06:03:16;-3.20;1.00
5980;DHT22;3016;50.308;8.258;2023-02-28T06:06:19;-3.20;1.00
5980;DHT22;3016;50.308;8.258;2023-02-28T06:09:20;-3.10;1.00
5980;DHT22;3016;50.308;8.258;2023-02-28T06:12:21;-3.10;1.00
5980;DHT22;3016;50.308;8.258;2023-02-28T06:15:22;-3.00;1.00
5980;DHT22;3016;50.308;8.258;2023-02-28T06:18:23;-3.00;1.00
5980;DHT22;3016;50.308;8.258;2023-02-28T06:21:25;-2.90;1.00
5980;DHT22;3016;50.308;8.258;2023-02-28T06:24:27;-2.90;1.00
5980;DHT22;3016;50.308;8.258;2023-02-28T06:27:28;-2.90;1.00
5980;DHT22;3016;50.308;8.258;2023-02-28T06:30:31;-2.90;1.00
5980;DHT22;3016;50.308;8.258;2023-02-28T06:33:56;-2.90;1.00
5980;DHT22;3016;50.308;8.258;2023-02-28T06:36:57;-2.80;1.00
5980;DHT22;3016;50.308;8.258;2023-02-28T06:40:03;-2.80;1.00
5980;DHT22;3016;50.308;8.258;2023-02-28T06:43:07;-2.70;1.00
5980;DHT22;3016;50.308;8.258;2023-02-28T06:46:11;-2.80;1.00
5980;DHT22;3016;50.308;8.258;2023-02-28T06:49:14;-2.70;1.00
5980;DHT22;3016;50.308;8.258;2023-02-28T06:52:15;-2.70;1.00
5980;DHT22;3016;50.308;8.258;2023-02-28T06:55:17;-2.70;1.00
5980;DHT22;3016;50.308;8.258;2023-02-28T06:58:18;-2.80;1.00
5980;DHT22;3016;50.308;8.258;2023-02-28T07:01:20;-2.80;1.00
5980;DHT22;3016;50.308;8.258;2023-02-28T07:04:23;-2.80;1.00
5980;DHT22;3016;50.308;8.258;2023-02-28T07:07:24;-2.70;1.00
5980;DHT22;3016;50.308;8.258;2023-02-28T07:10:25;-2.60;1.00
5980;DHT22;3016;50.308;8.258;2023-02-28T07:13:28;-2.50;1.00
5980;DHT22;3016;50.308;8.258;2023-02-28T07:16:29;-2.30;1.00
5980;DHT22;3016;50.308;8.258;2023-02-28T07:19:47;-2.20;1.00
5980;DHT22;3016;50.308;8.258;2023-02-28T07:22:48;-2.20;1.00
5980;DHT22;3016;50.308;8.258;2023-02-28T07:25:55;-2.10;1.00
5980;DHT22;3016;50.308;8.258;2023-02-28T07:28:57;-2.10;1.00
5980;DHT22;3016;50.308;8.258;2023-02-28T07:31:58;-2.00;1.00
5980;DHT22;3016;50.308;8.258;2023-02-28T07:34:59;-2.00;1.00
5980;DHT22;3016;50.308;8.258;2023-02-28T07:38:01;-1.90;1.00
5980;DHT22;3016;50.308;8.258;2023-02-28T07:41:03;-1.70;1.00
5980;DHT22;3016;50.308;8.258;2023-02-28T07:44:05;-1.60;1.00
5980;DHT22;3016;50.308;8.258;2023-02-28T07:47:07;-1.50;1.00
5980;DHT22;3016;50.308;8.258;2023-02-28T07:50:11;-1.30;1.00
5980;DHT22;3016;50.308;8.258;2023-02-28T07:53:14;-1.10;1.00
5980;DHT22;3016;50.308;8.258;2023-02-28T07:56:15;-0.90;1.00
5980;DHT22;3016;50.308;8.258;2023-02-28T07:59:16;-0.70;1.00
5980;DHT22;3016;50.308;8.258;2023-02-28T08:02:18;-0.50;1.00
5980;DHT22;3016;50.308;8.258;2023-02-28T08:05:19;-0.40;1.00
5980;DHT22;3016;50.308;8.258;2023-02-28T08:08:21;-0.30;1.00
5980;DHT22;3016;50.308;8.258;2023-02-28T08:11:23;-0.20;1.00
5980;DHT22;3016;50.308;8.258;2023-02-28T08:14:24;-0.10;1.00
5980;DHT22;3016;50.308;8.258;2023-02-28T08:17:31;0.10;1.00
5980;DHT22;3016;50.308;8.258;2023-02-28T08:20:37;0.40;1.00
5980;DHT22;3016;50.308;8.258;2023-02-28T08:23:42;0.60;1.00
5980;DHT22;3016;50.308;8.258;2023-02-28T08:36:15;1.20;1.00
5980;DHT22;3016;50.308;8.258;2023-02-28T08:48:52;1.70;1.00
5980;DHT22;3016;50.308;8.258;2023-02-28T08:52:27;1.70;1.00
5980;DHT22;3016;50.308;8.258;2023-02-28T08:55:36;1.70;1.00
5980;DHT22;3016;50.308;8.258;2023-02-28T09:01:48;1.90;1.00
5980;DHT22;3016;50.308;8.258;2023-02-28T09:08:15;2.00;1.00
5980;DHT22;3016;50.308;8.258;2023-02-28T09:11:17;2.10;1.00
5980;DHT22;3016;50.308;8.258;2023-02-28T09:17:33;2.30;1.00
5980;DHT22;3016;50.308;8.258;2023-02-28T09:20:41;2.20;1.00
5980;DHT22;3016;50.308;8.258;2023-02-28T09:24:04;2.30;1.00
5980;DHT22;3016;50.308;8.258;2023-02-28T10:22:53;3.30;1.00
5980;DHT22;3016;50.308;8.258;2023-02-28T10:29:21;4.00;1.00
5980;DHT22;3016;50.308;8.258;2023-02-28T10:32:33;4.20;1.00
5980;DHT22;3016;50.308;8.258;2023-02-28T10:38:56;3.60;1.00
5980;DHT22;3016;50.308;8.258;2023-02-28T10:41:59;3.20;1.00
5980;DHT22;3016;50.308;8.258;2023-02-28T10:45:14;3.10;1.00
5980;DHT22;3016;50.308;8.258;2023-02-28T10:51:35;3.10;1.00
5980;DHT22;3016;50.308;8.258;2023-02-28T10:54:41;2.90;1.00
5980;DHT22;3016;50.308;8.258;2023-02-28T11:33:51;3.10;1.00
5980;DHT22;3016;50.308;8.258;2023-02-28T11:36:57;3.60;1.00
5980;DHT22;3016;50.308;8.258;2023-02-28T11:39:58;4.00;1.00
5980;DHT22;3016;50.308;8.258;2023-02-28T11:43:11;4.20;1.00
5980;DHT22;3016;50.308;8.258;2023-02-28T11:46:50;4.10;1.00
5980;DHT22;3016;50.308;8.258;2023-02-28T11:56:36;3.90;1.00
5980;DHT22;3016;50.308;8.258;2023-02-28T12:04:13;4.50;1.00
5980;DHT22;3016;50.308;8.258;2023-02-28T12:07:35;4.60;1.00
5980;DHT22;3016;50.308;8.258;2023-02-28T12:11:19;4.90;1.00
5980;DHT22;3016;50.308;8.258;2023-02-28T12:14:56;5.20;1.00
5980;DHT22;3016;50.308;8.258;2023-02-28T12:28:43;6.10;1.00
5980;DHT22;3016;50.308;8.258;2023-02-28T12:31:55;6.20;1.00
5980;DHT22;3016;50.308;8.258;2023-02-28T12:38:12;6.10;1.00
5980;DHT22;3016;50.308;8.258;2023-02-28T12:41:32;6.00;1.00
5980;DHT22;3016;50.308;8.258;2023-02-28T12:44:56;5.80;1.00
5980;DHT22;3016;50.308;8.258;2023-02-28T12:48:02;5.90;1.00
5980;DHT22;3016;50.308;8.258;2023-02-28T12:51:06;6.00;1.00
5980;DHT22;3016;50.308;8.258;2023-02-28T12:54:48;5.90;1.00
5980;DHT22;3016;50.308;8.258;2023-02-28T13:01:39;6.00;1.00
5980;DHT22;3016;50.308;8.258;2023-02-28T13:04:46;5.70;1.00
5980;DHT22;3016;50.308;8.258;2023-02-28T13:11:50;5.90;1.00
5980;DHT22;3016;50.308;8.258;2023-02-28T13:18:33;5.70;1.00
5980;DHT22;3016;50.308;8.258;2023-02-28T13:21:44;5.70;1.00
5980;DHT22;3016;50.308;8.258;2023-02-28T13:27:56;5.70;1.00
5980;DHT22;3016;50.308;8.258;2023-02-28T13:31:05;5.90;1.00
5980;DHT22;3016;50.308;8.258;2023-02-28T13:34:14;6.20;1.00
5980;DHT22;3016;50.308;8.258;2023-02-28T13:40:33;6.30;1.00
5980;DHT22;3016;50.308;8.258;2023-02-28T13:47:21;6.40;1.00
5980;DHT22;3016;50.308;8.258;2023-02-28T13:50:32;6.20;1.00
5980;DHT22;3016;50.308;8.258;2023-02-28T13:54:15;6.20;1.00
5980;DHT22;3016;50.308;8.258;2023-02-28T13:57:53;5.70;1.00
5980;DHT22;3016;50.308;8.258;2023-02-28T14:05:14;5.80;1.00
5980;DHT22;3016;50.308;8.258;2023-02-28T14:08:22;6.00;1.00
5980;DHT22;3016;50.308;8.258;2023-02-28T14:11:33;5.90;1.00
5980;DHT22;3016;50.308;8.258;2023-02-28T14:17:37;5.80;1.00
5980;DHT22;3016;50.308;8.258;2023-02-28T14:20:45;5.60;1.00
5980;DHT22;3016;50.308;8.258;2023-02-28T14:28:13;5.20;1.00
5980;DHT22;3016;50.308;8.258;2023-02-28T14:31:38;5.50;1.00
5980;DHT22;3016;50.308;8.258;2023-02-28T14:35:03;5.20;1.00
5980;DHT22;3016;50.308;8.258;2023-02-28T14:38:22;5.80;1.00
5980;DHT22;3016;50.308;8.258;2023-02-28T14:41:37;5.90;1.00
5980;DHT22;3016;50.308;8.258;2023-02-28T14:44:39;5.90;1.00
5980;DHT22;3016;50.308;8.258;2023-02-28T14:47:42;6.10;1.00
5980;DHT22;3016;50.308;8.258;2023-02-28T14:50:49;6.30;1.00
5980;DHT22;3016;50.308;8.258;2023-02-28T14:53:57;6.20;1.00
5980;DHT22;3016;50.308;8.258;2023-02-28T14:57:00;6.30;1.00
5980;DHT22;3016;50.308;8.258;2023-02-28T15:03:37;6.10;1.00
5980;DHT22;3016;50.308;8.258;2023-02-28T15:06:39;5.70;1.00
5980;DHT22;3016;50.308;8.258;2023-02-28T15:09:42;5.50;1.00
5980;DHT22;3016;50.308;8.258;2023-02-28T15:13:06;5.30;1.00
5980;DHT22;3016;50.308;8.258;2023-02-28T15:16:17;5.20;1.00
5980;DHT22;3016;50.308;8.258;2023-02-28T15:19:26;5.30;1.00
5980;DHT22;3016;50.308;8.258;2023-02-28T15:22:36;5.50;1.00
5980;DHT22;3016;50.308;8.258;2023-02-28T15:25:39;5.40;1.00
5980;DHT22;3016;50.308;8.258;2023-02-28T15:28:41;5.10;1.00
5980;DHT22;3016;50.308;8.258;2023-02-28T15:31:48;4.80;1.00
5980;DHT22;3016;50.308;8.258;2023-02-28T15:38:26;4.80;1.00
5980;DHT22;3016;50.308;8.258;2023-02-28T15:41:30;4.50;1.00
5980;DHT22;3016;50.308;8.258;2023-02-28T15:44:38;4.50;1.00
5980;DHT22;3016;50.308;8.258;2023-02-28T15:47:45;4.40;1.00
5980;DHT22;3016;50.308;8.258;2023-02-28T15:50:53;4.40;1.00
5980;DHT22;3016;50.308;8.258;2023-02-28T15:54:12;4.30;1.00
5980;DHT22;3016;50.308;8.258;2023-02-28T15:57:20;4.30;1.00
5980;DHT22;3016;50.308;8.258;2023-02-28T16:00:24;4.20;1.00
5980;DHT22;3016;50.308;8.258;2023-02-28T16:03:32;4.10;1.00
5980;DHT22;3016;50.308;8.258;2023-02-28T16:06:43;4.10;1.00
5980;DHT22;3016;50.308;8.258;2023-02-28T16:09:48;4.10;1.00
5980;DHT22;3016;50.308;8.258;2023-02-28T16:12:49;4.00;1.00
5980;DHT22;3016;50.308;8.258;2023-02-28T16:15:50;4.00;1.00
5980;DHT22;3016;50.308;8.258;2023-02-28T16:18:51;4.00;1.00
5980;DHT22;3016;50.308;8.258;2023-02-28T16:21:52;4.00;1.00
5980;DHT22;3016;50.308;8.258;2023-02-28T16:24:53;3.90;1.00
5980;DHT22;3016;50.308;8.258;2023-02-28T16:27:54;3.80;1.00
5980;DHT22;3016;50.308;8.258;2023-02-28T16:30:55;3.70;1.00
5980;DHT22;3016;50.308;8.258;2023-02-28T16:33:57;3.70;1.00
5980;DHT22;3016;50.308;8.258;2023-02-28T16:36:58;3.60;1.00
5980;DHT22;3016;50.308;8.258;2023-02-28T16:39:59;3.60;1.00
5980;DHT22;3016;50.308;8.258;2023-02-28T16:43:00;3.50;1.00
5980;DHT22;3016;50.308;8.258;2023-02-28T16:46:01;3.40;1.00
5980;DHT22;3016;50.308;8.258;2023-02-28T16:49:04;3.30;1.00
5980;DHT22;3016;50.308;8.258;2023-02-28T16:52:05;3.20;1.00
5980;DHT22;3016;50.308;8.258;2023-02-28T16:55:06;3.10;1.00
5980;DHT22;3016;50.308;8.258;2023-02-28T16:58:14;2.90;1.00
5980;DHT22;3016;50.308;8.258;2023-02-28T17:01:17;2.80;1.00
5980;DHT22;3016;50.308;8.258;2023-02-28T17:04:22;2.70;1.00
5980;DHT22;3016;50.308;8.258;2023-02-28T17:07:23;2.60;1.00
5980;DHT22;3016;50.308;8.258;2023-02-28T17:10:26;2.40;1.00
5980;DHT22;3016;50.308;8.258;2023-02-28T17:13:27;2.30;1.00
5980;DHT22;3016;50.308;8.258;2023-02-28T17:16:30;2.20;1.00
5980;DHT22;3016;50.308;8.258;2023-02-28T17:19:33;2.10;1.00
5980;DHT22;3016;50.308;8.258;2023-02-28T17:22:36;1.90;1.00
5980;DHT22;3016;50.308;8.258;2023-02-28T17:25:37;1.70;1.00
5980;DHT22;3016;50.308;8.258;2023-02-28T17:28:38;1.60;1.00
5980;DHT22;3016;50.308;8.258;2023-02-28T17:31:39;1.40;1.00
5980;DHT22;3016;50.308;8.258;2023-02-28T17:34:40;1.30;1.00
5980;DHT22;3016;50.308;8.258;2023-02-28T17:37:41;1.20;1.00
5980;DHT22;3016;50.308;8.258;2023-02-28T17:40:43;1.10;1.00
5980;DHT22;3016;50.308;8.258;2023-02-28T17:43:45;0.90;1.00
5980;DHT22;3016;50.308;8.258;2023-02-28T17:46:54;0.80;1.00
5980;DHT22;3016;50.308;8.258;2023-02-28T17:49:55;0.70;1.00
5980;DHT22;3016;50.308;8.258;2023-02-28T17:52:56;0.50;1.00
5980;DHT22;3016;50.308;8.258;2023-02-28T17:55:57;0.40;1.00
5980;DHT22;3016;50.308;8.258;2023-02-28T17:58:58;0.30;1.00
5980;DHT22;3016;50.308;8.258;2023-02-28T18:02:00;0.10;1.00
5980;DHT22;3016;50.308;8.258;2023-02-28T18:05:02;0.00;1.00
5980;DHT22;3016;50.308;8.258;2023-02-28T18:08:08;-0.20;1.00
5980;DHT22;3016;50.308;8.258;2023-02-28T18:11:10;-0.30;1.00
5980;DHT22;3016;50.308;8.258;2023-02-28T18:14:20;-0.40;1.00
5980;DHT22;3016;50.308;8.258;2023-02-28T18:17:23;-0.50;1.00
5980;DHT22;3016;50.308;8.258;2023-02-28T18:20:25;-0.60;1.00
5980;DHT22;3016;50.308;8.258;2023-02-28T18:23:26;-0.70;1.00
5980;DHT22;3016;50.308;8.258;2023-02-28T18:26:27;-0.80;1.00
5980;DHT22;3016;50.308;8.258;2023-02-28T18:29:27;-0.80;1.00
5980;DHT22;3016;50.308;8.258;2023-02-28T18:32:29;-0.90;1.00
5980;DHT22;3016;50.308;8.258;2023-02-28T18:35:30;-1.00;1.00
5980;DHT22;3016;50.308;8.258;2023-02-28T18:38:35;-1.10;1.00
5980;DHT22;3016;50.308;8.258;2023-02-28T18:41:36;-1.10;1.00
5980;DHT22;3016;50.308;8.258;2023-02-28T18:44:37;-1.20;1.00
5980;DHT22;3016;50.308;8.258;2023-02-28T18:47:37;-1.20;1.00
5980;DHT22;3016;50.308;8.258;2023-02-28T18:50:38;-1.20;1.00
5980;DHT22;3016;50.308;8.258;2023-02-28T18:53:40;-1.30;1.00
5980;DHT22;3016;50.308;8.258;2023-02-28T18:56:41;-1.40;1.00
5980;DHT22;3016;50.308;8.258;2023-02-28T18:59:42;-1.40;1.00
5980;DHT22;3016;50.308;8.258;2023-02-28T19:02:43;-1.40;1.00
5980;DHT22;3016;50.308;8.258;2023-02-28T19:05:45;-1.50;1.00
5980;DHT22;3016;50.308;8.258;2023-02-28T19:08:46;-1.50;1.00
5980;DHT22;3016;50.308;8.258;2023-02-28T19:11:48;-1.60;1.00
5980;DHT22;3016;50.308;8.258;2023-02-28T19:14:49;-1.60;1.00
5980;DHT22;3016;50.308;8.258;2023-02-28T19:17:50;-1.70;1.00
5980;DHT22;3016;50.308;8.258;2023-02-28T19:20:51;-1.70;1.00
5980;DHT22;3016;50.308;8.258;2023-02-28T19:23:52;-1.70;1.00
5980;DHT22;3016;50.308;8.258;2023-02-28T19:26:53;-1.70;1.00
5980;DHT22;3016;50.308;8.258;2023-02-28T19:29:53;-1.70;1.00
5980;DHT22;3016;50.308;8.258;2023-02-28T19:32:55;-1.80;1.00
5980;DHT22;3016;50.308;8.258;2023-02-28T19:35:59;-1.80;1.00
5980;DHT22;3016;50.308;8.258;2023-02-28T19:39:00;-1.80;1.00
5980;DHT22;3016;50.308;8.258;2023-02-28T19:42:01;-1.90;1.00
5980;DHT22;3016;50.308;8.258;2023-02-28T19:45:02;-1.90;1.00
5980;DHT22;3016;50.308;8.258;2023-02-28T19:48:04;-2.00;1.00
5980;DHT22;3016;50.308;8.258;2023-02-28T19:51:10;-2.00;1.00
5980;DHT22;3016;50.308;8.258;2023-02-28T19:54:12;-2.10;1.00
5980;DHT22;3016;50.308;8.258;2023-02-28T19:57:13;-2.10;1.00
5980;DHT22;3016;50.308;8.258;2023-02-28T20:00:14;-2.20;1.00
5980;DHT22;3016;50.308;8.258;2023-02-28T20:03:16;-2.20;1.00
5980;DHT22;3016;50.308;8.258;2023-02-28T20:06:20;-2.30;1.00
5980;DHT22;3016;50.308;8.258;2023-02-28T20:09:21;-2.30;1.00
5980;DHT22;3016;50.308;8.258;2023-02-28T20:12:22;-2.30;1.00
5980;DHT22;3016;50.308;8.258;2023-02-28T20:18:33;-2.40;1.00
5980;DHT22;3016;50.308;8.258;2023-02-28T20:21:35;-2.50;1.00
5980;DHT22;3016;50.308;8.258;2023-02-28T20:24:36;-2.50;1.00
5980;DHT22;3016;50.308;8.258;2023-02-28T20:27:37;-2.50;1.00
5980;DHT22;3016;50.308;8.258;2023-02-28T20:30:38;-2.60;1.00
5980;DHT22;3016;50.308;8.258;2023-02-28T20:33:41;-2.60;1.00
5980;DHT22;3016;50.308;8.258;2023-02-28T20:36:43;-2.70;1.00
5980;DHT22;3016;50.308;8.258;2023-02-28T20:39:44;-2.70;1.00
5980;DHT22;3016;50.308;8.258;2023-02-28T20:42:45;-2.70;1.00
5980;DHT22;3016;50.308;8.258;2023-02-28T20:45:51;-2.70;1.00
5980;DHT22;3016;50.308;8.258;2023-02-28T20:48:53;-2.70;1.00
5980;DHT22;3016;50.308;8.258;2023-02-28T20:51:53;-2.80;1.00
5980;DHT22;3016;50.308;8.258;2023-02-28T20:54:54;-2.80;1.00
5980;DHT22;3016;50.308;8.258;2023-02-28T20:57:55;-2.80;1.00
5980;DHT22;3016;50.308;8.258;2023-02-28T21:01:04;-2.90;1.00
5980;DHT22;3016;50.308;8.258;2023-02-28T21:04:26;-2.90;1.00
5980;DHT22;3016;50.308;8.258;2023-02-28T21:07:28;-2.90;1.00
5980;DHT22;3016;50.308;8.258;2023-02-28T21:10:28;-3.00;1.00
5980;DHT22;3016;50.308;8.258;2023-02-28T21:13:29;-3.00;1.00
5980;DHT22;3016;50.308;8.258;2023-02-28T21:16:30;-3.00;1.00
5980;DHT22;3016;50.308;8.258;2023-02-28T21:19:31;-3.00;1.00
5980;DHT22;3016;50.308;8.258;2023-02-28T21:22:32;-3.00;1.00
5980;DHT22;3016;50.308;8.258;2023-02-28T21:25:33;-3.10;1.00
5980;DHT22;3016;50.308;8.258;2023-02-28T21:28:34;-3.10;1.00
5980;DHT22;3016;50.308;8.258;2023-02-28T21:31:36;-3.10;1.00
5980;DHT22;3016;50.308;8.258;2023-02-28T21:34:37;-3.10;1.00
5980;DHT22;3016;50.308;8.258;2023-02-28T21:37:37;-3.20;1.00
5980;DHT22;3016;50.308;8.258;2023-02-28T21:40:38;-3.20;1.00
5980;DHT22;3016;50.308;8.258;2023-02-28T21:43:40;-3.20;1.00
5980;DHT22;3016;50.308;8.258;2023-02-28T21:46:41;-3.20;1.00
5980;DHT22;3016;50.308;8.258;2023-02-28T21:49:42;-3.30;1.00
5980;DHT22;3016;50.308;8.258;2023-02-28T21:52:53;-3.30;1.00
5980;DHT22;3016;50.308;8.258;2023-02-28T21:56:02;-3.30;1.00
5980;DHT22;3016;50.308;8.258;2023-02-28T21:59:04;-3.30;1.00
5980;DHT22;3016;50.308;8.258;2023-02-28T22:02:13;-3.30;1.00
5980;DHT22;3016;50.308;8.258;2023-02-28T22:05:21;-3.40;1.00
5980;DHT22;3016;50.308;8.258;2023-02-28T22:08:26;-3.40;1.00
5980;DHT22;3016;50.308;8.258;2023-02-28T22:11:28;-3.50;1.00
5980;DHT22;3016;50.308;8.258;2023-02-28T22:14:33;-3.50;1.00
5980;DHT22;3016;50.308;8.258;2023-02-28T22:17:44;-3.60;1.00
5980;DHT22;3016;50.308;8.258;2023-02-28T22:20:53;-3.60;1.00
5980;DHT22;3016;50.308;8.258;2023-02-28T22:23:57;-3.60;1.00
5980;DHT22;3016;50.308;8.258;2023-02-28T22:26:58;-3.60;1.00
5980;DHT22;3016;50.308;8.258;2023-02-28T22:29:59;-3.60;1.00
5980;DHT22;3016;50.308;8.258;2023-02-28T22:33:03;-3.60;1.00
5980;DHT22;3016;50.308;8.258;2023-02-28T22:36:06;-3.70;1.00
5980;DHT22;3016;50.308;8.258;2023-02-28T22:39:12;-3.70;1.00
5980;DHT22;3016;50.308;8.258;2023-02-28T22:42:14;-3.80;1.00
5980;DHT22;3016;50.308;8.258;2023-02-28T22:45:17;-3.80;1.00
5980;DHT22;3016;50.308;8.258;2023-02-28T22:48:19;-3.80;1.00
5980;DHT22;3016;50.308;8.258;2023-02-28T22:51:23;-3.90;1.00
5980;DHT22;3016;50.308;8.258;2023-02-28T22:54:28;-3.90;1.00
5980;DHT22;3016;50.308;8.258;2023-02-28T22:57:30;-3.80;1.00
5980;DHT22;3016;50.308;8.258;2023-02-28T23:00:31;-3.90;1.00
5980;DHT22;3016;50.308;8.258;2023-02-28T23:03:33;-3.90;1.00
5980;DHT22;3016;50.308;8.258;2023-02-28T23:06:36;-3.90;1.00
5980;DHT22;3016;50.308;8.258;2023-02-28T23:09:44;-3.90;1.00
5980;DHT22;3016;50.308;8.258;2023-02-28T23:12:50;-4.00;1.00
5980;DHT22;3016;50.308;8.258;2023-02-28T23:15:54;-4.00;1.00
5980;DHT22;3016;50.308;8.258;2023-02-28T23:18:56;-4.00;1.00
5980;DHT22;3016;50.308;8.258;2023-02-28T23:22:00;-4.00;1.00
5980;DHT22;3016;50.308;8.258;2023-02-28T23:25:02;-4.00;1.00
5980;DHT22;3016;50.308;8.258;2023-02-28T23:28:04;-4.10;1.00
5980;DHT22;3016;50.308;8.258;2023-02-28T23:31:05;-4.10;1.00
5980;DHT22;3016;50.308;8.258;2023-02-28T23:34:06;-4.10;1.00
5980;DHT22;3016;50.308;8.258;2023-02-28T23:37:06;-4.10;1.00
5980;DHT22;3016;50.308;8.258;2023-02-28T23:40:09;-4.10;1.00
5980;DHT22;3016;50.308;8.258;2023-02-28T23:43:10;-4.10;1.00
5980;DHT22;3016;50.308;8.258;2023-02-28T23:46:12;-4.10;1.00
5980;DHT22;3016;50.308;8.258;2023-02-28T23:49:14;-4.10;1.00
5980;DHT22;3016;50.308;8.258;2023-02-28T23:52:15;-4.10;1.00
5980;DHT22;3016;50.308;8.258;2023-02-28T23:55:16;-4.10;1.00
5980;DHT22;3016;50.308;8.258;2023-02-28T23:58:17;-4.10;1.00
